Terminal Aerodrome Forecast
Issued by NWS Paducah, KY

Home | Current Version | Previous Version | Graphics & Text | Print | Product List | Glossary On
Versions: 1 2 3 4 5 6 7 8 9 10 11 12 13 14
077
FTUS43 KPAH 302320
TAFEVV
TAF
KEVV 302320Z 3100/3124 VRB03KT P6SM SKC
     FM311400 33006KT P6SM SCT035
      TEMPO 3116/3120 BKN035=

USA.gov is the U.S. government's official web portal to all federal, state and local government web resources and services.